Weather at K.A.A.Y. Kitiou Helipad

Public forecast

Using degrees Celsius for public forecast. Weather courtesy of forecast.io.

Closest aviation weather report (METAR) to K.A.A.Y. Kitiou Helipad

Closest report is Larnaca International Airport, 0.9 nm (1.6 km) NNW.

2024/06/22 10:00 (retrieved 31 minutes ago)

LCLK 221000Z 19015KT 9999 FEW012 FEW035CB 31/22 Q1003 NOSIG RMK DISTANT CB TO W

Closest aviation forecast (TAF) to K.A.A.Y. Kitiou Helipad

Closest forecast is Larnaca International Airport, 0.9 nm (1.6 km) NNW.

2024/06/22 06:36 (retrieved 4 hours ago)

TAF TAF LCLK 220530Z 2206/2306 27006KT 9999 FEW015 BECMG 2206/2210 21016KT BECMG 2216/2220 27006KT PROB30 2222/2306 5000 BR BKN007 PROB30 TEMPO 2300/2306 0800 BCFG BKN001